sensor_id;sensor_type;location;lat;lon;timestamp;temperature;humidity
13496;DHT22;6820;49.374;8.452;2024-01-30T00:00:19;5.41;99.99
13496;DHT22;6820;49.374;8.452;2024-01-30T00:04:21;5.42;99.99
13496;DHT22;6820;49.374;8.452;2024-01-30T00:08:22;5.41;99.99
13496;DHT22;6820;49.374;8.452;2024-01-30T00:12:24;5.42;99.99
13496;DHT22;6820;49.374;8.452;2024-01-30T00:16:26;5.41;99.99
13496;DHT22;6820;49.374;8.452;2024-01-30T00:20:28;5.38;99.99
13496;DHT22;6820;49.374;8.452;2024-01-30T00:24:29;5.38;99.99
13496;DHT22;6820;49.374;8.452;2024-01-30T00:28:31;5.37;99.99
13496;DHT22;6820;49.374;8.452;2024-01-30T00:32:33;5.33;99.99
13496;DHT22;6820;49.374;8.452;2024-01-30T00:36:34;5.30;99.99
13496;DHT22;6820;49.374;8.452;2024-01-30T00:40:36;5.27;99.99
13496;DHT22;6820;49.374;8.452;2024-01-30T00:44:38;5.23;99.99
13496;DHT22;6820;49.374;8.452;2024-01-30T00:48:40;5.23;99.99
13496;DHT22;6820;49.374;8.452;2024-01-30T00:52:41;5.19;99.99
13496;DHT22;6820;49.374;8.452;2024-01-30T00:56:46;5.15;99.99
13496;DHT22;6820;49.374;8.452;2024-01-30T01:00:47;5.12;99.99
13496;DHT22;6820;49.374;8.452;2024-01-30T01:04:49;5.09;99.99
13496;DHT22;6820;49.374;8.452;2024-01-30T01:08:51;5.05;99.99
13496;DHT22;6820;49.374;8.452;2024-01-30T01:12:53;5.02;99.99
13496;DHT22;6820;49.374;8.452;2024-01-30T01:17:02;4.99;99.99
13496;DHT22;6820;49.374;8.452;2024-01-30T01:21:04;4.94;99.99
13496;DHT22;6820;49.374;8.452;2024-01-30T01:25:06;4.90;99.99
13496;DHT22;6820;49.374;8.452;2024-01-30T01:29:09;4.86;99.99
13496;DHT22;6820;49.374;8.452;2024-01-30T01:33:13;4.80;99.99
13496;DHT22;6820;49.374;8.452;2024-01-30T01:37:16;4.79;99.99
13496;DHT22;6820;49.374;8.452;2024-01-30T01:41:18;4.77;99.99
13496;DHT22;6820;49.374;8.452;2024-01-30T01:45:20;4.77;99.99
13496;DHT22;6820;49.374;8.452;2024-01-30T01:49:24;4.74;99.99
13496;DHT22;6820;49.374;8.452;2024-01-30T01:53:28;4.69;99.99
13496;DHT22;6820;49.374;8.452;2024-01-30T01:57:30;4.67;99.99
13496;DHT22;6820;49.374;8.452;2024-01-30T02:01:32;4.64;99.99
13496;DHT22;6820;49.374;8.452;2024-01-30T02:05:34;4.61;99.99
13496;DHT22;6820;49.374;8.452;2024-01-30T02:09:37;4.59;99.99
13496;DHT22;6820;49.374;8.452;2024-01-30T02:13:38;4.54;99.99
13496;DHT22;6820;49.374;8.452;2024-01-30T02:17:42;4.54;99.99
13496;DHT22;6820;49.374;8.452;2024-01-30T02:21:44;4.54;99.99
13496;DHT22;6820;49.374;8.452;2024-01-30T02:25:47;4.53;99.99
13496;DHT22;6820;49.374;8.452;2024-01-30T02:29:49;4.51;99.99
13496;DHT22;6820;49.374;8.452;2024-01-30T02:33:51;4.47;99.99
13496;DHT22;6820;49.374;8.452;2024-01-30T02:37:53;4.47;99.99
13496;DHT22;6820;49.374;8.452;2024-01-30T02:41:55;4.44;99.99
13496;DHT22;6820;49.374;8.452;2024-01-30T02:45:57;4.44;99.99
13496;DHT22;6820;49.374;8.452;2024-01-30T02:49:59;4.43;99.99
13496;DHT22;6820;49.374;8.452;2024-01-30T02:54:01;4.44;99.99
13496;DHT22;6820;49.374;8.452;2024-01-30T02:58:03;4.44;99.99
13496;DHT22;6820;49.374;8.452;2024-01-30T03:02:05;4.43;99.99
13496;DHT22;6820;49.374;8.452;2024-01-30T03:06:06;4.42;99.99
13496;DHT22;6820;49.374;8.452;2024-01-30T03:10:08;4.39;99.99
13496;DHT22;6820;49.374;8.452;2024-01-30T03:14:10;4.39;99.99
13496;DHT22;6820;49.374;8.452;2024-01-30T03:18:12;4.38;99.99
13496;DHT22;6820;49.374;8.452;2024-01-30T03:22:14;4.39;99.99
13496;DHT22;6820;49.374;8.452;2024-01-30T03:26:15;4.39;99.99
13496;DHT22;6820;49.374;8.452;2024-01-30T03:30:17;4.43;99.99
13496;DHT22;6820;49.374;8.452;2024-01-30T03:34:19;4.43;99.99
13496;DHT22;6820;49.374;8.452;2024-01-30T03:38:21;4.42;99.99
13496;DHT22;6820;49.374;8.452;2024-01-30T03:42:22;4.39;99.99
13496;DHT22;6820;49.374;8.452;2024-01-30T03:46:24;4.36;99.99
13496;DHT22;6820;49.374;8.452;2024-01-30T03:50:26;4.32;99.99
13496;DHT22;6820;49.374;8.452;2024-01-30T03:54:29;4.32;99.99
13496;DHT22;6820;49.374;8.452;2024-01-30T03:58:31;4.28;99.99
13496;DHT22;6820;49.374;8.452;2024-01-30T04:02:32;4.26;99.99
13496;DHT22;6820;49.374;8.452;2024-01-30T04:06:34;4.21;99.99
13496;DHT22;6820;49.374;8.452;2024-01-30T04:10:36;4.20;99.99
13496;DHT22;6820;49.374;8.452;2024-01-30T04:14:38;4.18;99.99
13496;DHT22;6820;49.374;8.452;2024-01-30T04:18:40;4.17;99.99
13496;DHT22;6820;49.374;8.452;2024-01-30T04:22:45;4.16;99.99
13496;DHT22;6820;49.374;8.452;2024-01-30T04:26:47;4.16;99.99
13496;DHT22;6820;49.374;8.452;2024-01-30T04:30:49;4.14;99.99
13496;DHT22;6820;49.374;8.452;2024-01-30T04:34:51;4.14;99.99
13496;DHT22;6820;49.374;8.452;2024-01-30T04:38:53;4.11;99.99
13496;DHT22;6820;49.374;8.452;2024-01-30T04:42:54;4.08;99.99
13496;DHT22;6820;49.374;8.452;2024-01-30T04:46:56;4.07;99.99
13496;DHT22;6820;49.374;8.452;2024-01-30T04:51:00;4.07;99.99
13496;DHT22;6820;49.374;8.452;2024-01-30T04:55:04;4.06;99.99
13496;DHT22;6820;49.374;8.452;2024-01-30T04:59:06;4.06;99.99
13496;DHT22;6820;49.374;8.452;2024-01-30T05:03:09;4.04;99.99
13496;DHT22;6820;49.374;8.452;2024-01-30T05:07:11;4.02;99.99
13496;DHT22;6820;49.374;8.452;2024-01-30T05:11:13;4.04;99.99
13496;DHT22;6820;49.374;8.452;2024-01-30T05:15:14;4.04;99.99
13496;DHT22;6820;49.374;8.452;2024-01-30T05:19:16;4.02;99.99
13496;DHT22;6820;49.374;8.452;2024-01-30T05:23:19;4.02;99.99
13496;DHT22;6820;49.374;8.452;2024-01-30T05:27:20;4.02;99.99
13496;DHT22;6820;49.374;8.452;2024-01-30T05:31:22;4.02;99.99
13496;DHT22;6820;49.374;8.452;2024-01-30T05:35:24;4.00;99.99
13496;DHT22;6820;49.374;8.452;2024-01-30T05:39:26;4.00;99.99
13496;DHT22;6820;49.374;8.452;2024-01-30T05:43:27;3.99;99.99
13496;DHT22;6820;49.374;8.452;2024-01-30T05:47:29;3.98;99.99
13496;DHT22;6820;49.374;8.452;2024-01-30T05:51:31;3.96;99.99
13496;DHT22;6820;49.374;8.452;2024-01-30T05:55:35;3.98;99.99
13496;DHT22;6820;49.374;8.452;2024-01-30T05:59:36;3.93;99.99
13496;DHT22;6820;49.374;8.452;2024-01-30T06:03:42;3.95;99.99
13496;DHT22;6820;49.374;8.452;2024-01-30T06:07:44;3.92;99.99
13496;DHT22;6820;49.374;8.452;2024-01-30T06:11:46;3.90;99.99
13496;DHT22;6820;49.374;8.452;2024-01-30T06:15:48;3.88;99.99
13496;DHT22;6820;49.374;8.452;2024-01-30T06:19:50;3.88;99.99
13496;DHT22;6820;49.374;8.452;2024-01-30T06:23:52;3.86;99.99
13496;DHT22;6820;49.374;8.452;2024-01-30T06:27:53;3.86;99.99
13496;DHT22;6820;49.374;8.452;2024-01-30T06:31:55;3.86;99.99
13496;DHT22;6820;49.374;8.452;2024-01-30T06:35:57;3.82;99.99
13496;DHT22;6820;49.374;8.452;2024-01-30T06:39:58;3.80;99.99
13496;DHT22;6820;49.374;8.452;2024-01-30T06:44:02;3.77;99.99
13496;DHT22;6820;49.374;8.452;2024-01-30T06:48:04;3.75;99.99
13496;DHT22;6820;49.374;8.452;2024-01-30T06:52:06;3.74;99.99
13496;DHT22;6820;49.374;8.452;2024-01-30T06:56:08;3.72;99.99
13496;DHT22;6820;49.374;8.452;2024-01-30T07:00:10;3.71;99.99
13496;DHT22;6820;49.374;8.452;2024-01-30T07:04:12;3.68;99.99
13496;DHT22;6820;49.374;8.452;2024-01-30T07:08:15;3.68;99.99
13496;DHT22;6820;49.374;8.452;2024-01-30T07:12:18;3.63;99.99
13496;DHT22;6820;49.374;8.452;2024-01-30T07:16:20;3.62;99.99
13496;DHT22;6820;49.374;8.452;2024-01-30T07:20:22;3.59;99.99
13496;DHT22;6820;49.374;8.452;2024-01-30T07:24:24;3.60;99.99
13496;DHT22;6820;49.374;8.452;2024-01-30T07:28:25;3.57;99.99
13496;DHT22;6820;49.374;8.452;2024-01-30T07:32:27;3.59;99.99
13496;DHT22;6820;49.374;8.452;2024-01-30T07:36:29;3.60;99.99
13496;DHT22;6820;49.374;8.452;2024-01-30T07:40:31;3.63;99.99
13496;DHT22;6820;49.374;8.452;2024-01-30T07:44:34;3.64;99.99
13496;DHT22;6820;49.374;8.452;2024-01-30T07:48:36;3.67;99.99
13496;DHT22;6820;49.374;8.452;2024-01-30T07:52:38;3.68;99.99
13496;DHT22;6820;49.374;8.452;2024-01-30T07:56:40;3.74;99.99
13496;DHT22;6820;49.374;8.452;2024-01-30T08:00:43;3.78;99.99
13496;DHT22;6820;49.374;8.452;2024-01-30T08:04:45;3.86;99.99
13496;DHT22;6820;49.374;8.452;2024-01-30T08:08:50;3.95;99.99
13496;DHT22;6820;49.374;8.452;2024-01-30T08:12:54;4.06;99.99
13496;DHT22;6820;49.374;8.452;2024-01-30T08:16:56;4.14;99.99
13496;DHT22;6820;49.374;8.452;2024-01-30T08:20:57;4.25;99.99
13496;DHT22;6820;49.374;8.452;2024-01-30T08:24:59;4.34;99.99
13496;DHT22;6820;49.374;8.452;2024-01-30T08:29:01;4.43;99.99
13496;DHT22;6820;49.374;8.452;2024-01-30T08:33:03;4.49;99.99
13496;DHT22;6820;49.374;8.452;2024-01-30T08:37:05;4.54;99.99
13496;DHT22;6820;49.374;8.452;2024-01-30T08:41:07;4.64;99.99
13496;DHT22;6820;49.374;8.452;2024-01-30T08:45:09;4.69;99.99
13496;DHT22;6820;49.374;8.452;2024-01-30T08:49:11;4.75;99.99
13496;DHT22;6820;49.374;8.452;2024-01-30T08:53:16;4.80;99.99
13496;DHT22;6820;49.374;8.452;2024-01-30T08:57:18;4.87;99.99
13496;DHT22;6820;49.374;8.452;2024-01-30T09:01:19;4.91;99.99
13496;DHT22;6820;49.374;8.452;2024-01-30T09:05:21;4.96;99.99
13496;DHT22;6820;49.374;8.452;2024-01-30T09:09:23;5.01;99.99
13496;DHT22;6820;49.374;8.452;2024-01-30T09:13:25;5.06;99.99
13496;DHT22;6820;49.374;8.452;2024-01-30T09:17:27;5.15;99.99
13496;DHT22;6820;49.374;8.452;2024-01-30T09:21:29;5.24;99.99
13496;DHT22;6820;49.374;8.452;2024-01-30T09:25:30;5.29;99.99
13496;DHT22;6820;49.374;8.452;2024-01-30T09:29:32;5.35;99.99
13496;DHT22;6820;49.374;8.452;2024-01-30T09:33:35;5.38;99.99
13496;DHT22;6820;49.374;8.452;2024-01-30T09:37:37;5.44;99.99
13496;DHT22;6820;49.374;8.452;2024-01-30T09:41:43;5.48;99.99
13496;DHT22;6820;49.374;8.452;2024-01-30T09:45:49;5.55;99.99
13496;DHT22;6820;49.374;8.452;2024-01-30T09:49:52;5.59;99.99
13496;DHT22;6820;49.374;8.452;2024-01-30T09:53:54;5.65;99.99
13496;DHT22;6820;49.374;8.452;2024-01-30T09:57:56;5.74;99.99
13496;DHT22;6820;49.374;8.452;2024-01-30T10:01:58;5.84;99.99
13496;DHT22;6820;49.374;8.452;2024-01-30T10:05:59;5.90;99.99
13496;DHT22;6820;49.374;8.452;2024-01-30T10:10:04;5.98;99.99
13496;DHT22;6820;49.374;8.452;2024-01-30T10:14:07;6.10;99.99
13496;DHT22;6820;49.374;8.452;2024-01-30T10:18:08;6.19;99.99
13496;DHT22;6820;49.374;8.452;2024-01-30T10:22:11;6.28;99.99
13496;DHT22;6820;49.374;8.452;2024-01-30T10:26:13;6.38;99.99
13496;DHT22;6820;49.374;8.452;2024-01-30T10:30:17;6.50;99.99
13496;DHT22;6820;49.374;8.452;2024-01-30T10:34:20;6.63;99.99
13496;DHT22;6820;49.374;8.452;2024-01-30T10:38:24;6.72;99.99
13496;DHT22;6820;49.374;8.452;2024-01-30T10:42:31;6.79;99.99
13496;DHT22;6820;49.374;8.452;2024-01-30T10:46:33;6.87;99.99
13496;DHT22;6820;49.374;8.452;2024-01-30T10:50:39;6.96;99.99
13496;DHT22;6820;49.374;8.452;2024-01-30T10:54:54;7.04;99.99
13496;DHT22;6820;49.374;8.452;2024-01-30T10:58:57;7.14;99.99
13496;DHT22;6820;49.374;8.452;2024-01-30T11:02:59;7.24;99.99
13496;DHT22;6820;49.374;8.452;2024-01-30T11:07:01;7.41;99.99
13496;DHT22;6820;49.374;8.452;2024-01-30T11:11:04;7.69;99.99
13496;DHT22;6820;49.374;8.452;2024-01-30T11:15:14;7.73;99.99
13496;DHT22;6820;49.374;8.452;2024-01-30T11:19:23;7.85;99.99
13496;DHT22;6820;49.374;8.452;2024-01-30T11:23:27;7.89;99.99
13496;DHT22;6820;49.374;8.452;2024-01-30T11:27:33;7.94;99.99
13496;DHT22;6820;49.374;8.452;2024-01-30T11:31:34;8.04;99.99
13496;DHT22;6820;49.374;8.452;2024-01-30T11:35:37;8.10;99.99
13496;DHT22;6820;49.374;8.452;2024-01-30T11:39:43;8.17;99.99
13496;DHT22;6820;49.374;8.452;2024-01-30T11:43:55;8.24;99.99
13496;DHT22;6820;49.374;8.452;2024-01-30T11:47:57;8.28;99.99
13496;DHT22;6820;49.374;8.452;2024-01-30T11:52:01;8.36;99.99
13496;DHT22;6820;49.374;8.452;2024-01-30T11:56:05;8.39;99.99
13496;DHT22;6820;49.374;8.452;2024-01-30T12:00:14;8.47;99.99
13496;DHT22;6820;49.374;8.452;2024-01-30T12:04:18;8.57;99.99
13496;DHT22;6820;49.374;8.452;2024-01-30T12:08:20;8.67;99.99
13496;DHT22;6820;49.374;8.452;2024-01-30T12:12:25;8.76;99.99
13496;DHT22;6820;49.374;8.452;2024-01-30T12:16:28;8.89;99.99
13496;DHT22;6820;49.374;8.452;2024-01-30T12:20:33;9.01;99.99
13496;DHT22;6820;49.374;8.452;2024-01-30T12:24:35;9.13;99.99
13496;DHT22;6820;49.374;8.452;2024-01-30T12:28:36;9.23;99.99
13496;DHT22;6820;49.374;8.452;2024-01-30T12:32:39;9.32;99.99
13496;DHT22;6820;49.374;8.452;2024-01-30T12:36:46;9.40;99.99
13496;DHT22;6820;49.374;8.452;2024-01-30T12:40:50;9.41;99.99
13496;DHT22;6820;49.374;8.452;2024-01-30T12:44:57;9.44;99.99
13496;DHT22;6820;49.374;8.452;2024-01-30T12:48:59;9.45;99.99
13496;DHT22;6820;49.374;8.452;2024-01-30T12:53:01;9.53;99.99
13496;DHT22;6820;49.374;8.452;2024-01-30T12:57:03;9.59;99.99
13496;DHT22;6820;49.374;8.452;2024-01-30T13:01:05;9.60;99.99
13496;DHT22;6820;49.374;8.452;2024-01-30T13:05:07;9.62;99.99
13496;DHT22;6820;49.374;8.452;2024-01-30T13:09:09;9.60;99.99
13496;DHT22;6820;49.374;8.452;2024-01-30T13:13:11;9.62;99.99
13496;DHT22;6820;49.374;8.452;2024-01-30T13:17:20;9.63;99.99
13496;DHT22;6820;49.374;8.452;2024-01-30T13:21:22;9.65;99.99
13496;DHT22;6820;49.374;8.452;2024-01-30T13:25:24;9.65;99.99
13496;DHT22;6820;49.374;8.452;2024-01-30T13:29:26;9.62;99.99
13496;DHT22;6820;49.374;8.452;2024-01-30T13:33:28;9.63;99.99
13496;DHT22;6820;49.374;8.452;2024-01-30T13:37:30;9.65;99.99
13496;DHT22;6820;49.374;8.452;2024-01-30T13:41:31;9.67;99.99
13496;DHT22;6820;49.374;8.452;2024-01-30T13:45:33;9.68;99.99
13496;DHT22;6820;49.374;8.452;2024-01-30T13:49:35;9.67;99.99
13496;DHT22;6820;49.374;8.452;2024-01-30T13:53:37;9.70;99.99
13496;DHT22;6820;49.374;8.452;2024-01-30T13:57:38;9.71;99.99
13496;DHT22;6820;49.374;8.452;2024-01-30T14:01:40;9.67;99.99
13496;DHT22;6820;49.374;8.452;2024-01-30T14:05:42;9.68;99.99
13496;DHT22;6820;49.374;8.452;2024-01-30T14:09:45;9.70;99.99
13496;DHT22;6820;49.374;8.452;2024-01-30T14:13:47;9.70;99.99
13496;DHT22;6820;49.374;8.452;2024-01-30T14:17:48;9.70;99.99
13496;DHT22;6820;49.374;8.452;2024-01-30T14:21:51;9.68;99.99
13496;DHT22;6820;49.374;8.452;2024-01-30T14:25:52;9.70;99.99
13496;DHT22;6820;49.374;8.452;2024-01-30T14:29:55;9.68;99.99
13496;DHT22;6820;49.374;8.452;2024-01-30T14:33:57;9.70;99.99
13496;DHT22;6820;49.374;8.452;2024-01-30T14:37:59;9.68;99.99
13496;DHT22;6820;49.374;8.452;2024-01-30T14:42:01;9.67;99.99
13496;DHT22;6820;49.374;8.452;2024-01-30T14:46:02;9.63;99.99
13496;DHT22;6820;49.374;8.452;2024-01-30T14:50:07;9.67;99.99
13496;DHT22;6820;49.374;8.452;2024-01-30T14:54:10;9.73;99.99
13496;DHT22;6820;49.374;8.452;2024-01-30T14:58:12;9.74;99.99
13496;DHT22;6820;49.374;8.452;2024-01-30T15:02:14;9.74;99.99
13496;DHT22;6820;49.374;8.452;2024-01-30T15:06:16;9.71;99.99
13496;DHT22;6820;49.374;8.452;2024-01-30T15:10:18;9.67;99.99
13496;DHT22;6820;49.374;8.452;2024-01-30T15:14:20;9.60;99.99
13496;DHT22;6820;49.374;8.452;2024-01-30T15:18:21;9.55;99.99
13496;DHT22;6820;49.374;8.452;2024-01-30T15:22:23;9.50;99.99
13496;DHT22;6820;49.374;8.452;2024-01-30T15:26:25;9.48;99.99
13496;DHT22;6820;49.374;8.452;2024-01-30T15:30:27;9.40;99.99
13496;DHT22;6820;49.374;8.452;2024-01-30T15:34:29;9.38;99.99
13496;DHT22;6820;49.374;8.452;2024-01-30T15:38:31;9.40;99.99
13496;DHT22;6820;49.374;8.452;2024-01-30T15:42:33;9.38;99.99
13496;DHT22;6820;49.374;8.452;2024-01-30T15:46:35;9.32;99.99
13496;DHT22;6820;49.374;8.452;2024-01-30T15:50:36;9.30;99.99
13496;DHT22;6820;49.374;8.452;2024-01-30T15:54:38;9.32;99.99
13496;DHT22;6820;49.374;8.452;2024-01-30T15:58:40;9.30;99.99
13496;DHT22;6820;49.374;8.452;2024-01-30T16:02:42;9.26;99.99
13496;DHT22;6820;49.374;8.452;2024-01-30T16:06:44;9.24;99.99
13496;DHT22;6820;49.374;8.452;2024-01-30T16:10:46;9.24;99.99
13496;DHT22;6820;49.374;8.452;2024-01-30T16:14:47;9.23;99.99
13496;DHT22;6820;49.374;8.452;2024-01-30T16:18:49;9.22;99.99
13496;DHT22;6820;49.374;8.452;2024-01-30T16:22:51;9.22;99.99
13496;DHT22;6820;49.374;8.452;2024-01-30T16:26:56;9.22;99.99
13496;DHT22;6820;49.374;8.452;2024-01-30T16:30:58;9.23;99.99
13496;DHT22;6820;49.374;8.452;2024-01-30T16:35:02;9.20;99.99
13496;DHT22;6820;49.374;8.452;2024-01-30T16:39:04;9.15;99.99
13496;DHT22;6820;49.374;8.452;2024-01-30T16:43:05;9.15;99.99
13496;DHT22;6820;49.374;8.452;2024-01-30T16:47:07;9.15;99.99
13496;DHT22;6820;49.374;8.452;2024-01-30T16:51:09;9.12;99.99
13496;DHT22;6820;49.374;8.452;2024-01-30T16:55:10;9.10;99.99
13496;DHT22;6820;49.374;8.452;2024-01-30T16:59:12;9.10;99.99
13496;DHT22;6820;49.374;8.452;2024-01-30T17:03:14;9.06;99.99
13496;DHT22;6820;49.374;8.452;2024-01-30T17:07:15;9.04;99.99
13496;DHT22;6820;49.374;8.452;2024-01-30T17:11:17;9.08;99.99
13496;DHT22;6820;49.374;8.452;2024-01-30T17:15:19;9.08;99.99
13496;DHT22;6820;49.374;8.452;2024-01-30T17:19:21;9.06;99.99
13496;DHT22;6820;49.374;8.452;2024-01-30T17:23:23;9.08;99.99
13496;DHT22;6820;49.374;8.452;2024-01-30T17:27:27;9.10;99.99
13496;DHT22;6820;49.374;8.452;2024-01-30T17:31:29;9.08;99.99
13496;DHT22;6820;49.374;8.452;2024-01-30T17:35:30;9.04;99.99
13496;DHT22;6820;49.374;8.452;2024-01-30T17:39:32;9.06;99.99
13496;DHT22;6820;49.374;8.452;2024-01-30T17:43:34;9.03;99.99
13496;DHT22;6820;49.374;8.452;2024-01-30T17:47:35;9.03;99.99
13496;DHT22;6820;49.374;8.452;2024-01-30T17:51:38;9.01;99.99
13496;DHT22;6820;49.374;8.452;2024-01-30T17:55:40;8.98;99.99
13496;DHT22;6820;49.374;8.452;2024-01-30T17:59:42;8.96;99.99
13496;DHT22;6820;49.374;8.452;2024-01-30T18:03:44;8.96;99.99
13496;DHT22;6820;49.374;8.452;2024-01-30T18:07:45;8.94;99.99
13496;DHT22;6820;49.374;8.452;2024-01-30T18:11:47;8.93;99.99
13496;DHT22;6820;49.374;8.452;2024-01-30T18:15:49;8.93;99.99
13496;DHT22;6820;49.374;8.452;2024-01-30T18:19:51;8.93;99.99
13496;DHT22;6820;49.374;8.452;2024-01-30T18:23:53;8.91;99.99
13496;DHT22;6820;49.374;8.452;2024-01-30T18:27:54;8.91;99.99
13496;DHT22;6820;49.374;8.452;2024-01-30T18:31:56;8.91;99.99
13496;DHT22;6820;49.374;8.452;2024-01-30T18:35:58;8.88;99.99
13496;DHT22;6820;49.374;8.452;2024-01-30T18:39:59;8.85;99.99
13496;DHT22;6820;49.374;8.452;2024-01-30T18:44:01;8.83;99.99
13496;DHT22;6820;49.374;8.452;2024-01-30T18:48:03;8.80;99.99
13496;DHT22;6820;49.374;8.452;2024-01-30T18:52:05;8.82;99.99
13496;DHT22;6820;49.374;8.452;2024-01-30T18:56:07;8.82;99.99
13496;DHT22;6820;49.374;8.452;2024-01-30T19:00:09;8.82;99.99
13496;DHT22;6820;49.374;8.452;2024-01-30T19:04:11;8.82;99.99
13496;DHT22;6820;49.374;8.452;2024-01-30T19:08:13;8.79;99.99
13496;DHT22;6820;49.374;8.452;2024-01-30T19:12:17;8.78;99.99
13496;DHT22;6820;49.374;8.452;2024-01-30T19:16:19;8.76;99.99
13496;DHT22;6820;49.374;8.452;2024-01-30T19:20:21;8.73;99.99
13496;DHT22;6820;49.374;8.452;2024-01-30T19:24:24;8.73;99.99
13496;DHT22;6820;49.374;8.452;2024-01-30T19:28:26;8.71;99.99
13496;DHT22;6820;49.374;8.452;2024-01-30T19:32:28;8.68;99.99
13496;DHT22;6820;49.374;8.452;2024-01-30T19:36:29;8.67;99.99
13496;DHT22;6820;49.374;8.452;2024-01-30T19:40:31;8.68;99.99
13496;DHT22;6820;49.374;8.452;2024-01-30T19:44:33;8.65;99.99
13496;DHT22;6820;49.374;8.452;2024-01-30T19:48:35;8.65;99.99
13496;DHT22;6820;49.374;8.452;2024-01-30T19:52:37;8.64;99.99
13496;DHT22;6820;49.374;8.452;2024-01-30T19:56:40;8.61;99.99
13496;DHT22;6820;49.374;8.452;2024-01-30T20:00:42;8.61;99.99
13496;DHT22;6820;49.374;8.452;2024-01-30T20:04:43;8.58;99.99
13496;DHT22;6820;49.374;8.452;2024-01-30T20:08:46;8.60;99.99
13496;DHT22;6820;49.374;8.452;2024-01-30T20:12:48;8.60;99.99
13496;DHT22;6820;49.374;8.452;2024-01-30T20:16:51;8.60;99.99
13496;DHT22;6820;49.374;8.452;2024-01-30T20:20:53;8.60;99.99
13496;DHT22;6820;49.374;8.452;2024-01-30T20:24:54;8.61;99.99
13496;DHT22;6820;49.374;8.452;2024-01-30T20:29:11;8.63;99.99
13496;DHT22;6820;49.374;8.452;2024-01-30T20:33:13;8.64;99.99
13496;DHT22;6820;49.374;8.452;2024-01-30T20:37:17;8.65;99.99
13496;DHT22;6820;49.374;8.452;2024-01-30T20:41:20;8.65;99.99
13496;DHT22;6820;49.374;8.452;2024-01-30T20:45:21;8.67;99.99
13496;DHT22;6820;49.374;8.452;2024-01-30T20:49:24;8.68;99.99
13496;DHT22;6820;49.374;8.452;2024-01-30T20:53:26;8.70;99.99
13496;DHT22;6820;49.374;8.452;2024-01-30T20:57:28;8.70;99.99
13496;DHT22;6820;49.374;8.452;2024-01-30T21:01:29;8.70;99.99
13496;DHT22;6820;49.374;8.452;2024-01-30T21:05:31;8.71;99.99
13496;DHT22;6820;49.374;8.452;2024-01-30T21:09:33;8.71;99.99
13496;DHT22;6820;49.374;8.452;2024-01-30T21:13:35;8.70;99.99
13496;DHT22;6820;49.374;8.452;2024-01-30T21:17:37;8.71;99.99
13496;DHT22;6820;49.374;8.452;2024-01-30T21:21:38;8.70;99.99
13496;DHT22;6820;49.374;8.452;2024-01-30T21:25:40;8.71;99.99
13496;DHT22;6820;49.374;8.452;2024-01-30T21:29:42;8.73;99.99
13496;DHT22;6820;49.374;8.452;2024-01-30T21:33:44;8.75;99.99
13496;DHT22;6820;49.374;8.452;2024-01-30T21:37:46;8.78;99.99
13496;DHT22;6820;49.374;8.452;2024-01-30T21:41:47;8.78;99.99
13496;DHT22;6820;49.374;8.452;2024-01-30T21:45:49;8.79;99.99
13496;DHT22;6820;49.374;8.452;2024-01-30T21:49:52;8.80;99.99
13496;DHT22;6820;49.374;8.452;2024-01-30T21:53:54;8.79;99.99
13496;DHT22;6820;49.374;8.452;2024-01-30T21:57:56;8.79;99.99
13496;DHT22;6820;49.374;8.452;2024-01-30T22:01:58;8.79;99.99
13496;DHT22;6820;49.374;8.452;2024-01-30T22:06:00;8.80;99.99
13496;DHT22;6820;49.374;8.452;2024-01-30T22:10:02;8.80;99.99
13496;DHT22;6820;49.374;8.452;2024-01-30T22:14:04;8.80;99.99
13496;DHT22;6820;49.374;8.452;2024-01-30T22:18:06;8.79;99.99
13496;DHT22;6820;49.374;8.452;2024-01-30T22:22:08;8.79;99.99
13496;DHT22;6820;49.374;8.452;2024-01-30T22:26:10;8.80;99.99
13496;DHT22;6820;49.374;8.452;2024-01-30T22:30:12;8.79;99.99
13496;DHT22;6820;49.374;8.452;2024-01-30T22:34:13;8.79;99.99
13496;DHT22;6820;49.374;8.452;2024-01-30T22:38:15;8.79;99.99
13496;DHT22;6820;49.374;8.452;2024-01-30T22:42:17;8.79;99.99
13496;DHT22;6820;49.374;8.452;2024-01-30T22:46:18;8.80;99.99
13496;DHT22;6820;49.374;8.452;2024-01-30T22:50:21;8.82;99.99
13496;DHT22;6820;49.374;8.452;2024-01-30T22:54:23;8.83;99.99
13496;DHT22;6820;49.374;8.452;2024-01-30T22:58:25;8.83;99.99
13496;DHT22;6820;49.374;8.452;2024-01-30T23:02:26;8.85;99.99
13496;DHT22;6820;49.374;8.452;2024-01-30T23:06:28;8.86;99.99
13496;DHT22;6820;49.374;8.452;2024-01-30T23:10:30;8.93;99.99
13496;DHT22;6820;49.374;8.452;2024-01-30T23:14:31;8.86;99.99
13496;DHT22;6820;49.374;8.452;2024-01-30T23:18:33;8.88;99.99
13496;DHT22;6820;49.374;8.452;2024-01-30T23:22:35;8.88;99.99
13496;DHT22;6820;49.374;8.452;2024-01-30T23:26:40;8.88;99.99
13496;DHT22;6820;49.374;8.452;2024-01-30T23:30:42;8.88;99.99
13496;DHT22;6820;49.374;8.452;2024-01-30T23:34:44;8.89;99.99
13496;DHT22;6820;49.374;8.452;2024-01-30T23:38:46;8.91;99.99
13496;DHT22;6820;49.374;8.452;2024-01-30T23:42:48;8.94;99.99
13496;DHT22;6820;49.374;8.452;2024-01-30T23:46:50;8.96;99.99
13496;DHT22;6820;49.374;8.452;2024-01-30T23:50:51;9.01;99.99
13496;DHT22;6820;49.374;8.452;2024-01-30T23:54:53;8.97;99.99
13496;DHT22;6820;49.374;8.452;2024-01-30T23:58:55;9.00;99.99
